sensor_id;sensor_type;location;lat;lon;timestamp;P1;durP1;ratioP1;P2;durP2;ratioP2
8312;SDS011;4194;43.408;24.626;2023-06-22T00:01:17;13.55;;;10.60;;
8312;SDS011;4194;43.408;24.626;2023-06-22T00:03:43;12.13;;;10.10;;
8312;SDS011;4194;43.408;24.626;2023-06-22T00:06:09;11.00;;;9.90;;
8312;SDS011;4194;43.408;24.626;2023-06-22T00:08:35;11.17;;;10.17;;
8312;SDS011;4194;43.408;24.626;2023-06-22T00:11:00;10.97;;;9.63;;
8312;SDS011;4194;43.408;24.626;2023-06-22T00:13:26;12.37;;;10.63;;
8312;SDS011;4194;43.408;24.626;2023-06-22T00:15:52;11.20;;;10.10;;
8312;SDS011;4194;43.408;24.626;2023-06-22T00:18:17;11.63;;;10.13;;
8312;SDS011;4194;43.408;24.626;2023-06-22T00:20:43;11.90;;;10.63;;
8312;SDS011;4194;43.408;24.626;2023-06-22T00:23:10;15.57;;;10.33;;
8312;SDS011;4194;43.408;24.626;2023-06-22T00:25:39;11.53;;;10.17;;
8312;SDS011;4194;43.408;24.626;2023-06-22T00:28:05;13.83;;;10.30;;
8312;SDS011;4194;43.408;24.626;2023-06-22T00:30:32;13.17;;;10.60;;
8312;SDS011;4194;43.408;24.626;2023-06-22T00:32:58;11.37;;;10.17;;
8312;SDS011;4194;43.408;24.626;2023-06-22T00:35:25;11.57;;;10.47;;
8312;SDS011;4194;43.408;24.626;2023-06-22T00:37:57;11.50;;;9.80;;
8312;SDS011;4194;43.408;24.626;2023-06-22T00:40:27;12.40;;;9.83;;
8312;SDS011;4194;43.408;24.626;2023-06-22T00:42:54;11.93;;;10.60;;
8312;SDS011;4194;43.408;24.626;2023-06-22T00:45:20;11.23;;;10.00;;
8312;SDS011;4194;43.408;24.626;2023-06-22T00:47:47;11.97;;;10.43;;
8312;SDS011;4194;43.408;24.626;2023-06-22T00:50:19;13.23;;;10.37;;
8312;SDS011;4194;43.408;24.626;2023-06-22T00:52:56;10.67;;;9.63;;
8312;SDS011;4194;43.408;24.626;2023-06-22T00:55:23;10.03;;;8.73;;
8312;SDS011;4194;43.408;24.626;2023-06-22T00:57:51;16.23;;;9.47;;
8312;SDS011;4194;43.408;24.626;2023-06-22T01:00:22;9.83;;;8.50;;
8312;SDS011;4194;43.408;24.626;2023-06-22T01:02:49;10.93;;;8.30;;
8312;SDS011;4194;43.408;24.626;2023-06-22T01:05:19;9.10;;;8.03;;
8312;SDS011;4194;43.408;24.626;2023-06-22T01:07:55;10.30;;;8.00;;
8312;SDS011;4194;43.408;24.626;2023-06-22T01:13:11;9.83;;;8.83;;
8312;SDS011;4194;43.408;24.626;2023-06-22T01:16:00;9.13;;;8.23;;
8312;SDS011;4194;43.408;24.626;2023-06-22T01:18:26;9.03;;;8.00;;
8312;SDS011;4194;43.408;24.626;2023-06-22T01:20:55;9.50;;;8.60;;
8312;SDS011;4194;43.408;24.626;2023-06-22T01:25:53;11.13;;;8.60;;
8312;SDS011;4194;43.408;24.626;2023-06-22T01:30:55;8.67;;;7.97;;
8312;SDS011;4194;43.408;24.626;2023-06-22T01:33:34;9.07;;;8.27;;
8312;SDS011;4194;43.408;24.626;2023-06-22T01:36:02;15.27;;;9.03;;
8312;SDS011;4194;43.408;24.626;2023-06-22T01:38:29;9.47;;;8.57;;
8312;SDS011;4194;43.408;24.626;2023-06-22T01:40:56;9.40;;;8.50;;
8312;SDS011;4194;43.408;24.626;2023-06-22T01:43:24;9.10;;;8.30;;
8312;SDS011;4194;43.408;24.626;2023-06-22T01:45:51;9.40;;;8.47;;
8312;SDS011;4194;43.408;24.626;2023-06-22T01:48:19;9.10;;;8.20;;
8312;SDS011;4194;43.408;24.626;2023-06-22T01:50:45;9.87;;;8.87;;
8312;SDS011;4194;43.408;24.626;2023-06-22T01:53:11;8.63;;;7.73;;
8312;SDS011;4194;43.408;24.626;2023-06-22T01:55:36;9.03;;;8.17;;
8312;SDS011;4194;43.408;24.626;2023-06-22T01:58:02;9.57;;;8.63;;
8312;SDS011;4194;43.408;24.626;2023-06-22T02:00:28;10.20;;;9.20;;
8312;SDS011;4194;43.408;24.626;2023-06-22T02:03:08;13.43;;;8.77;;
8312;SDS011;4194;43.408;24.626;2023-06-22T02:05:52;10.03;;;9.00;;
8312;SDS011;4194;43.408;24.626;2023-06-22T02:08:30;9.23;;;8.07;;
8312;SDS011;4194;43.408;24.626;2023-06-22T02:11:07;11.48;;;9.18;;
8312;SDS011;4194;43.408;24.626;2023-06-22T02:13:36;9.37;;;8.57;;
8312;SDS011;4194;43.408;24.626;2023-06-22T02:16:03;9.40;;;8.50;;
8312;SDS011;4194;43.408;24.626;2023-06-22T02:18:29;10.03;;;8.97;;
8312;SDS011;4194;43.408;24.626;2023-06-22T02:20:55;10.13;;;9.00;;
8312;SDS011;4194;43.408;24.626;2023-06-22T02:23:20;10.10;;;8.50;;
8312;SDS011;4194;43.408;24.626;2023-06-22T02:25:46;11.50;;;9.20;;
8312;SDS011;4194;43.408;24.626;2023-06-22T02:28:11;11.37;;;8.30;;
8312;SDS011;4194;43.408;24.626;2023-06-22T02:30:37;11.30;;;8.90;;
8312;SDS011;4194;43.408;24.626;2023-06-22T02:33:03;14.93;;;8.47;;
8312;SDS011;4194;43.408;24.626;2023-06-22T02:35:29;11.67;;;8.67;;
8312;SDS011;4194;43.408;24.626;2023-06-22T02:37:56;12.43;;;9.67;;
8312;SDS011;4194;43.408;24.626;2023-06-22T02:40:26;11.80;;;8.93;;
8312;SDS011;4194;43.408;24.626;2023-06-22T02:42:51;10.80;;;8.73;;
8312;SDS011;4194;43.408;24.626;2023-06-22T02:45:17;12.23;;;9.07;;
8312;SDS011;4194;43.408;24.626;2023-06-22T02:47:43;10.73;;;8.80;;
8312;SDS011;4194;43.408;24.626;2023-06-22T02:50:09;10.50;;;9.37;;
8312;SDS011;4194;43.408;24.626;2023-06-22T02:52:35;12.10;;;9.10;;
8312;SDS011;4194;43.408;24.626;2023-06-22T02:55:00;9.70;;;7.37;;
8312;SDS011;4194;43.408;24.626;2023-06-22T02:57:26;9.00;;;8.10;;
8312;SDS011;4194;43.408;24.626;2023-06-22T02:59:52;9.33;;;8.43;;
8312;SDS011;4194;43.408;24.626;2023-06-22T03:02:17;9.80;;;8.77;;
8312;SDS011;4194;43.408;24.626;2023-06-22T03:04:46;9.87;;;8.87;;
8312;SDS011;4194;43.408;24.626;2023-06-22T03:07:13;9.70;;;8.43;;
8312;SDS011;4194;43.408;24.626;2023-06-22T03:09:39;11.77;;;8.10;;
8312;SDS011;4194;43.408;24.626;2023-06-22T03:12:05;11.23;;;8.33;;
8312;SDS011;4194;43.408;24.626;2023-06-22T03:14:31;11.03;;;9.07;;
8312;SDS011;4194;43.408;24.626;2023-06-22T03:16:57;10.77;;;8.97;;
8312;SDS011;4194;43.408;24.626;2023-06-22T03:19:28;9.70;;;8.80;;
8312;SDS011;4194;43.408;24.626;2023-06-22T03:21:56;12.83;;;8.57;;
8312;SDS011;4194;43.408;24.626;2023-06-22T03:24:22;9.70;;;8.23;;
8312;SDS011;4194;43.408;24.626;2023-06-22T03:26:48;10.07;;;8.47;;
8312;SDS011;4194;43.408;24.626;2023-06-22T03:29:13;10.53;;;9.43;;
8312;SDS011;4194;43.408;24.626;2023-06-22T03:31:40;9.57;;;8.67;;
8312;SDS011;4194;43.408;24.626;2023-06-22T03:34:06;9.97;;;8.63;;
8312;SDS011;4194;43.408;24.626;2023-06-22T03:36:32;9.33;;;8.43;;
8312;SDS011;4194;43.408;24.626;2023-06-22T03:38:58;12.07;;;9.40;;
8312;SDS011;4194;43.408;24.626;2023-06-22T03:41:23;9.03;;;7.90;;
8312;SDS011;4194;43.408;24.626;2023-06-22T03:43:50;9.77;;;8.87;;
8312;SDS011;4194;43.408;24.626;2023-06-22T03:46:16;9.87;;;8.87;;
8312;SDS011;4194;43.408;24.626;2023-06-22T03:48:41;11.53;;;8.30;;
8312;SDS011;4194;43.408;24.626;2023-06-22T03:51:07;11.70;;;9.23;;
8312;SDS011;4194;43.408;24.626;2023-06-22T03:53:33;16.37;;;9.37;;
8312;SDS011;4194;43.408;24.626;2023-06-22T03:55:58;16.00;;;9.33;;
8312;SDS011;4194;43.408;24.626;2023-06-22T03:58:24;14.67;;;9.83;;
8312;SDS011;4194;43.408;24.626;2023-06-22T04:00:51;16.20;;;9.73;;
8312;SDS011;4194;43.408;24.626;2023-06-22T04:03:17;11.30;;;9.23;;
8312;SDS011;4194;43.408;24.626;2023-06-22T04:05:44;13.20;;;9.83;;
8312;SDS011;4194;43.408;24.626;2023-06-22T04:08:10;12.85;;;9.88;;
8312;SDS011;4194;43.408;24.626;2023-06-22T04:10:36;16.40;;;9.70;;
8312;SDS011;4194;43.408;24.626;2023-06-22T04:13:02;15.90;;;10.50;;
8312;SDS011;4194;43.408;24.626;2023-06-22T04:15:28;12.90;;;10.17;;
8312;SDS011;4194;43.408;24.626;2023-06-22T04:17:54;12.80;;;9.67;;
8312;SDS011;4194;43.408;24.626;2023-06-22T04:20:20;13.97;;;9.70;;
8312;SDS011;4194;43.408;24.626;2023-06-22T04:22:46;10.63;;;9.47;;
8312;SDS011;4194;43.408;24.626;2023-06-22T04:25:11;13.87;;;9.37;;
8312;SDS011;4194;43.408;24.626;2023-06-22T04:27:37;12.13;;;8.80;;
8312;SDS011;4194;43.408;24.626;2023-06-22T04:30:06;9.67;;;7.80;;
8312;SDS011;4194;43.408;24.626;2023-06-22T04:32:33;9.67;;;8.67;;
8312;SDS011;4194;43.408;24.626;2023-06-22T04:35:02;14.30;;;7.60;;
8312;SDS011;4194;43.408;24.626;2023-06-22T04:37:30;9.53;;;8.53;;
8312;SDS011;4194;43.408;24.626;2023-06-22T04:39:56;11.03;;;8.43;;
8312;SDS011;4194;43.408;24.626;2023-06-22T04:42:21;9.57;;;8.33;;
8312;SDS011;4194;43.408;24.626;2023-06-22T04:44:47;13.83;;;8.77;;
8312;SDS011;4194;43.408;24.626;2023-06-22T04:47:13;12.03;;;8.50;;
8312;SDS011;4194;43.408;24.626;2023-06-22T04:49:38;11.43;;;8.30;;
8312;SDS011;4194;43.408;24.626;2023-06-22T04:52:08;11.73;;;8.43;;
8312;SDS011;4194;43.408;24.626;2023-06-22T04:54:36;14.07;;;8.13;;
8312;SDS011;4194;43.408;24.626;2023-06-22T04:57:03;9.93;;;7.97;;
8312;SDS011;4194;43.408;24.626;2023-06-22T04:59:34;10.77;;;8.47;;
8312;SDS011;4194;43.408;24.626;2023-06-22T05:02:01;9.63;;;7.83;;
8312;SDS011;4194;43.408;24.626;2023-06-22T05:04:28;13.53;;;8.17;;
8312;SDS011;4194;43.408;24.626;2023-06-22T05:06:56;9.77;;;8.13;;
8312;SDS011;4194;43.408;24.626;2023-06-22T05:09:23;9.83;;;8.47;;
8312;SDS011;4194;43.408;24.626;2023-06-22T05:11:50;11.37;;;8.87;;
8312;SDS011;4194;43.408;24.626;2023-06-22T05:14:15;12.40;;;8.33;;
8312;SDS011;4194;43.408;24.626;2023-06-22T05:16:42;11.23;;;8.40;;
8312;SDS011;4194;43.408;24.626;2023-06-22T05:19:08;9.20;;;8.30;;
8312;SDS011;4194;43.408;24.626;2023-06-22T05:21:34;10.53;;;8.07;;
8312;SDS011;4194;43.408;24.626;2023-06-22T05:24:00;11.83;;;8.37;;
8312;SDS011;4194;43.408;24.626;2023-06-22T05:26:27;8.63;;;7.83;;
8312;SDS011;4194;43.408;24.626;2023-06-22T05:28:54;12.20;;;8.40;;
8312;SDS011;4194;43.408;24.626;2023-06-22T05:31:20;10.20;;;8.17;;
8312;SDS011;4194;43.408;24.626;2023-06-22T05:33:46;7.80;;;6.97;;
8312;SDS011;4194;43.408;24.626;2023-06-22T05:36:14;7.43;;;6.70;;
8312;SDS011;4194;43.408;24.626;2023-06-22T05:38:40;8.00;;;7.30;;
8312;SDS011;4194;43.408;24.626;2023-06-22T05:41:06;10.47;;;7.60;;
8312;SDS011;4194;43.408;24.626;2023-06-22T05:43:32;11.70;;;8.10;;
8312;SDS011;4194;43.408;24.626;2023-06-22T05:45:58;9.30;;;7.73;;
8312;SDS011;4194;43.408;24.626;2023-06-22T05:48:24;10.27;;;7.67;;
8312;SDS011;4194;43.408;24.626;2023-06-22T05:50:50;11.60;;;7.83;;
8312;SDS011;4194;43.408;24.626;2023-06-22T05:53:16;10.77;;;8.60;;
8312;SDS011;4194;43.408;24.626;2023-06-22T05:55:42;9.30;;;8.13;;
8312;SDS011;4194;43.408;24.626;2023-06-22T05:58:07;14.20;;;9.10;;
8312;SDS011;4194;43.408;24.626;2023-06-22T06:00:33;12.57;;;8.60;;
8312;SDS011;4194;43.408;24.626;2023-06-22T06:02:59;12.20;;;8.53;;
8312;SDS011;4194;43.408;24.626;2023-06-22T06:05:31;10.38;;;8.23;;
8312;SDS011;4194;43.408;24.626;2023-06-22T06:08:01;11.53;;;8.03;;
8312;SDS011;4194;43.408;24.626;2023-06-22T06:10:29;9.37;;;7.50;;
8312;SDS011;4194;43.408;24.626;2023-06-22T06:12:55;10.03;;;7.70;;
8312;SDS011;4194;43.408;24.626;2023-06-22T06:15:21;10.10;;;9.20;;
8312;SDS011;4194;43.408;24.626;2023-06-22T06:17:51;9.17;;;8.27;;
8312;SDS011;4194;43.408;24.626;2023-06-22T06:20:21;12.73;;;8.53;;
8312;SDS011;4194;43.408;24.626;2023-06-22T06:22:51;10.27;;;8.07;;
8312;SDS011;4194;43.408;24.626;2023-06-22T06:25:17;11.43;;;8.80;;
8312;SDS011;4194;43.408;24.626;2023-06-22T06:27:46;8.70;;;7.83;;
8312;SDS011;4194;43.408;24.626;2023-06-22T06:30:12;9.07;;;7.83;;
8312;SDS011;4194;43.408;24.626;2023-06-22T06:32:39;9.77;;;8.43;;
8312;SDS011;4194;43.408;24.626;2023-06-22T06:35:06;10.27;;;7.47;;
8312;SDS011;4194;43.408;24.626;2023-06-22T06:37:34;8.93;;;7.73;;
8312;SDS011;4194;43.408;24.626;2023-06-22T06:40:01;9.40;;;7.50;;
8312;SDS011;4194;43.408;24.626;2023-06-22T06:42:30;7.80;;;7.20;;
8312;SDS011;4194;43.408;24.626;2023-06-22T06:44:56;11.03;;;8.30;;
8312;SDS011;4194;43.408;24.626;2023-06-22T06:47:22;9.50;;;8.50;;
8312;SDS011;4194;43.408;24.626;2023-06-22T06:49:48;7.63;;;6.83;;
8312;SDS011;4194;43.408;24.626;2023-06-22T06:52:13;8.33;;;7.53;;
8312;SDS011;4194;43.408;24.626;2023-06-22T06:54:39;8.60;;;7.80;;
8312;SDS011;4194;43.408;24.626;2023-06-22T06:57:07;8.27;;;7.47;;
8312;SDS011;4194;43.408;24.626;2023-06-22T06:59:35;9.97;;;7.67;;
8312;SDS011;4194;43.408;24.626;2023-06-22T07:02:01;8.17;;;7.37;;
8312;SDS011;4194;43.408;24.626;2023-06-22T07:04:27;11.67;;;7.60;;
8312;SDS011;4194;43.408;24.626;2023-06-22T07:06:52;7.67;;;6.93;;
8312;SDS011;4194;43.408;24.626;2023-06-22T07:09:18;8.97;;;7.13;;
8312;SDS011;4194;43.408;24.626;2023-06-22T07:11:44;8.53;;;7.30;;
8312;SDS011;4194;43.408;24.626;2023-06-22T07:14:09;8.27;;;7.30;;
8312;SDS011;4194;43.408;24.626;2023-06-22T07:16:35;8.13;;;7.43;;
8312;SDS011;4194;43.408;24.626;2023-06-22T07:19:00;9.00;;;7.57;;
8312;SDS011;4194;43.408;24.626;2023-06-22T07:21:26;8.00;;;7.20;;
8312;SDS011;4194;43.408;24.626;2023-06-22T07:23:52;8.87;;;7.10;;
8312;SDS011;4194;43.408;24.626;2023-06-22T07:26:19;9.67;;;6.97;;
8312;SDS011;4194;43.408;24.626;2023-06-22T07:28:44;7.53;;;6.83;;
8312;SDS011;4194;43.408;24.626;2023-06-22T07:31:10;9.43;;;7.30;;
8312;SDS011;4194;43.408;24.626;2023-06-22T07:33:36;8.27;;;7.43;;
8312;SDS011;4194;43.408;24.626;2023-06-22T07:36:01;8.33;;;7.53;;
8312;SDS011;4194;43.408;24.626;2023-06-22T07:38:32;8.00;;;7.17;;
8312;SDS011;4194;43.408;24.626;2023-06-22T07:40:58;8.60;;;7.23;;
8312;SDS011;4194;43.408;24.626;2023-06-22T07:43:24;7.70;;;7.00;;
8312;SDS011;4194;43.408;24.626;2023-06-22T07:45:50;7.37;;;6.67;;
8312;SDS011;4194;43.408;24.626;2023-06-22T07:48:22;8.33;;;7.20;;
8312;SDS011;4194;43.408;24.626;2023-06-22T07:50:48;7.60;;;7.00;;
8312;SDS011;4194;43.408;24.626;2023-06-22T07:53:14;8.23;;;7.40;;
8312;SDS011;4194;43.408;24.626;2023-06-22T07:55:40;8.43;;;7.50;;
8312;SDS011;4194;43.408;24.626;2023-06-22T07:58:05;8.40;;;7.60;;
8312;SDS011;4194;43.408;24.626;2023-06-22T08:00:31;11.83;;;8.07;;
8312;SDS011;4194;43.408;24.626;2023-06-22T08:02:58;8.57;;;7.33;;
8312;SDS011;4194;43.408;24.626;2023-06-22T08:05:24;11.70;;;7.97;;
8312;SDS011;4194;43.408;24.626;2023-06-22T08:07:50;8.83;;;8.00;;
8312;SDS011;4194;43.408;24.626;2023-06-22T08:10:16;11.57;;;8.23;;
8312;SDS011;4194;43.408;24.626;2023-06-22T08:12:42;10.40;;;8.33;;
8312;SDS011;4194;43.408;24.626;2023-06-22T08:15:08;8.97;;;7.33;;
8312;SDS011;4194;43.408;24.626;2023-06-22T08:17:35;11.90;;;8.33;;
8312;SDS011;4194;43.408;24.626;2023-06-22T08:20:02;8.70;;;7.93;;
8312;SDS011;4194;43.408;24.626;2023-06-22T08:22:34;9.00;;;7.47;;
8312;SDS011;4194;43.408;24.626;2023-06-22T08:25:01;10.63;;;7.90;;
8312;SDS011;4194;43.408;24.626;2023-06-22T08:27:27;9.20;;;7.77;;
8312;SDS011;4194;43.408;24.626;2023-06-22T08:29:56;9.73;;;8.73;;
8312;SDS011;4194;43.408;24.626;2023-06-22T08:32:23;11.40;;;9.67;;
8312;SDS011;4194;43.408;24.626;2023-06-22T08:34:53;9.07;;;8.17;;
8312;SDS011;4194;43.408;24.626;2023-06-22T08:37:20;9.50;;;8.03;;
8312;SDS011;4194;43.408;24.626;2023-06-22T08:39:48;11.63;;;8.20;;
8312;SDS011;4194;43.408;24.626;2023-06-22T08:42:14;9.87;;;8.00;;
8312;SDS011;4194;43.408;24.626;2023-06-22T08:44:40;8.43;;;7.63;;
8312;SDS011;4194;43.408;24.626;2023-06-22T08:47:06;9.07;;;7.50;;
8312;SDS011;4194;43.408;24.626;2023-06-22T08:49:31;8.60;;;7.80;;
8312;SDS011;4194;43.408;24.626;2023-06-22T08:51:57;9.93;;;8.00;;
8312;SDS011;4194;43.408;24.626;2023-06-22T08:54:23;8.03;;;7.33;;
8312;SDS011;4194;43.408;24.626;2023-06-22T08:56:48;8.73;;;7.90;;
8312;SDS011;4194;43.408;24.626;2023-06-22T08:59:14;8.43;;;7.63;;
8312;SDS011;4194;43.408;24.626;2023-06-22T09:01:40;10.23;;;7.13;;
8312;SDS011;4194;43.408;24.626;2023-06-22T09:04:05;10.90;;;7.20;;
8312;SDS011;4194;43.408;24.626;2023-06-22T09:06:34;8.13;;;7.43;;
8312;SDS011;4194;43.408;24.626;2023-06-22T09:08:59;10.67;;;7.53;;
8312;SDS011;4194;43.408;24.626;2023-06-22T09:11:25;7.67;;;6.87;;
8312;SDS011;4194;43.408;24.626;2023-06-22T09:13:51;8.03;;;7.03;;
8312;SDS011;4194;43.408;24.626;2023-06-22T09:16:18;7.67;;;6.97;;
8312;SDS011;4194;43.408;24.626;2023-06-22T09:18:47;11.97;;;7.50;;
8312;SDS011;4194;43.408;24.626;2023-06-22T09:21:14;7.90;;;7.20;;
8312;SDS011;4194;43.408;24.626;2023-06-22T09:23:40;10.03;;;7.70;;
8312;SDS011;4194;43.408;24.626;2023-06-22T09:26:05;9.67;;;7.13;;
8312;SDS011;4194;43.408;24.626;2023-06-22T09:28:31;8.10;;;7.30;;
8312;SDS011;4194;43.408;24.626;2023-06-22T09:30:58;8.57;;;6.90;;
8312;SDS011;4194;43.408;24.626;2023-06-22T09:33:25;9.00;;;7.10;;
8312;SDS011;4194;43.408;24.626;2023-06-22T09:35:51;10.13;;;6.93;;
8312;SDS011;4194;43.408;24.626;2023-06-22T09:38:17;7.40;;;6.80;;
8312;SDS011;4194;43.408;24.626;2023-06-22T09:40:42;9.97;;;7.07;;
8312;SDS011;4194;43.408;24.626;2023-06-22T09:43:08;7.72;;;6.72;;
8312;SDS011;4194;43.408;24.626;2023-06-22T09:45:34;8.77;;;7.75;;
8312;SDS011;4194;43.408;24.626;2023-06-22T09:47:59;7.53;;;6.53;;
8312;SDS011;4194;43.408;24.626;2023-06-22T09:50:25;7.03;;;6.47;;
8312;SDS011;4194;43.408;24.626;2023-06-22T09:52:51;12.35;;;7.07;;
8312;SDS011;4194;43.408;24.626;2023-06-22T09:55:20;7.70;;;6.30;;
8312;SDS011;4194;43.408;24.626;2023-06-22T09:57:46;7.75;;;6.20;;
8312;SDS011;4194;43.408;24.626;2023-06-22T10:00:12;6.00;;;5.40;;
8312;SDS011;4194;43.408;24.626;2023-06-22T10:02:41;6.00;;;5.60;;
8312;SDS011;4194;43.408;24.626;2023-06-22T10:05:07;7.95;;;6.32;;
8312;SDS011;4194;43.408;24.626;2023-06-22T10:07:33;8.00;;;6.40;;
8312;SDS011;4194;43.408;24.626;2023-06-22T10:09:58;9.82;;;6.20;;
8312;SDS011;4194;43.408;24.626;2023-06-22T10:12:25;6.50;;;6.00;;
8312;SDS011;4194;43.408;24.626;2023-06-22T10:14:52;7.03;;;6.13;;
8312;SDS011;4194;43.408;24.626;2023-06-22T10:17:18;6.85;;;5.90;;
8312;SDS011;4194;43.408;24.626;2023-06-22T10:19:43;7.25;;;5.55;;
8312;SDS011;4194;43.408;24.626;2023-06-22T10:22:09;7.50;;;6.45;;
8312;SDS011;4194;43.408;24.626;2023-06-22T10:24:35;8.02;;;6.53;;
8312;SDS011;4194;43.408;24.626;2023-06-22T10:27:00;6.63;;;6.03;;
8312;SDS011;4194;43.408;24.626;2023-06-22T10:29:26;6.88;;;6.25;;
8312;SDS011;4194;43.408;24.626;2023-06-22T10:31:52;6.88;;;5.85;;
8312;SDS011;4194;43.408;24.626;2023-06-22T10:34:17;7.03;;;5.90;;
8312;SDS011;4194;43.408;24.626;2023-06-22T10:36:43;6.85;;;6.20;;
8312;SDS011;4194;43.408;24.626;2023-06-22T10:39:11;6.50;;;5.78;;
8312;SDS011;4194;43.408;24.626;2023-06-22T10:41:37;7.10;;;6.40;;
8312;SDS011;4194;43.408;24.626;2023-06-22T10:44:02;11.48;;;6.25;;
8312;SDS011;4194;43.408;24.626;2023-06-22T10:46:28;6.60;;;6.10;;
8312;SDS011;4194;43.408;24.626;2023-06-22T10:48:54;7.43;;;6.45;;
8312;SDS011;4194;43.408;24.626;2023-06-22T10:51:21;7.90;;;6.85;;
8312;SDS011;4194;43.408;24.626;2023-06-22T10:53:47;6.30;;;5.70;;
8312;SDS011;4194;43.408;24.626;2023-06-22T10:56:13;10.80;;;6.28;;
8312;SDS011;4194;43.408;24.626;2023-06-22T10:58:38;6.93;;;6.18;;
8312;SDS011;4194;43.408;24.626;2023-06-22T11:01:04;9.52;;;6.47;;
8312;SDS011;4194;43.408;24.626;2023-06-22T11:03:30;10.55;;;6.00;;
8312;SDS011;4194;43.408;24.626;2023-06-22T11:05:55;6.13;;;5.60;;
8312;SDS011;4194;43.408;24.626;2023-06-22T11:08:21;6.28;;;5.68;;
8312;SDS011;4194;43.408;24.626;2023-06-22T11:10:47;6.82;;;6.07;;
8312;SDS011;4194;43.408;24.626;2023-06-22T11:13:12;7.28;;;6.57;;
8312;SDS011;4194;43.408;24.626;2023-06-22T11:15:38;6.78;;;5.75;;
8312;SDS011;4194;43.408;24.626;2023-06-22T11:18:04;6.30;;;5.70;;
8312;SDS011;4194;43.408;24.626;2023-06-22T11:20:32;6.43;;;5.78;;
8312;SDS011;4194;43.408;24.626;2023-06-22T11:22:59;7.32;;;6.63;;
8312;SDS011;4194;43.408;24.626;2023-06-22T11:25:25;11.35;;;6.45;;
8312;SDS011;4194;43.408;24.626;2023-06-22T11:27:51;6.15;;;5.68;;
8312;SDS011;4194;43.408;24.626;2023-06-22T11:30:18;7.32;;;6.68;;
8312;SDS011;4194;43.408;24.626;2023-06-22T11:32:44;6.22;;;5.72;;
8312;SDS011;4194;43.408;24.626;2023-06-22T11:35:10;7.80;;;5.78;;
8312;SDS011;4194;43.408;24.626;2023-06-22T11:37:36;8.15;;;6.60;;
8312;SDS011;4194;43.408;24.626;2023-06-22T11:40:01;6.72;;;5.93;;
8312;SDS011;4194;43.408;24.626;2023-06-22T11:42:30;6.65;;;6.15;;
8312;SDS011;4194;43.408;24.626;2023-06-22T11:44:56;6.47;;;5.88;;
8312;SDS011;4194;43.408;24.626;2023-06-22T11:47:21;6.57;;;6.00;;
8312;SDS011;4194;43.408;24.626;2023-06-22T11:49:47;7.10;;;6.50;;
8312;SDS011;4194;43.408;24.626;2023-06-22T11:52:13;6.97;;;6.38;;
8312;SDS011;4194;43.408;24.626;2023-06-22T11:54:38;6.88;;;6.38;;
8312;SDS011;4194;43.408;24.626;2023-06-22T11:57:04;7.05;;;6.22;;
8312;SDS011;4194;43.408;24.626;2023-06-22T11:59:30;6.70;;;5.90;;
8312;SDS011;4194;43.408;24.626;2023-06-22T12:01:57;7.30;;;6.60;;
8312;SDS011;4194;43.408;24.626;2023-06-22T12:04:23;8.15;;;6.88;;
8312;SDS011;4194;43.408;24.626;2023-06-22T12:06:49;8.05;;;7.30;;
8312;SDS011;4194;43.408;24.626;2023-06-22T12:09:14;8.40;;;7.60;;
8312;SDS011;4194;43.408;24.626;2023-06-22T12:11:40;8.95;;;8.05;;
8312;SDS011;4194;43.408;24.626;2023-06-22T12:14:06;8.93;;;8.02;;
8312;SDS011;4194;43.408;24.626;2023-06-22T12:16:32;7.28;;;6.63;;
8312;SDS011;4194;43.408;24.626;2023-06-22T12:18:57;8.48;;;6.35;;
8312;SDS011;4194;43.408;24.626;2023-06-22T12:21:23;10.15;;;6.97;;
8312;SDS011;4194;43.408;24.626;2023-06-22T12:23:48;7.72;;;6.72;;
8312;SDS011;4194;43.408;24.626;2023-06-22T12:26:14;7.85;;;6.40;;
8312;SDS011;4194;43.408;24.626;2023-06-22T12:28:40;9.30;;;7.07;;
8312;SDS011;4194;43.408;24.626;2023-06-22T12:31:06;10.35;;;6.68;;
8312;SDS011;4194;43.408;24.626;2023-06-22T12:33:32;7.18;;;6.28;;
8312;SDS011;4194;43.408;24.626;2023-06-22T12:35:57;7.43;;;6.72;;
8312;SDS011;4194;43.408;24.626;2023-06-22T12:38:23;8.55;;;6.40;;
8312;SDS011;4194;43.408;24.626;2023-06-22T12:40:52;7.72;;;6.93;;
8312;SDS011;4194;43.408;24.626;2023-06-22T12:43:18;7.88;;;6.50;;
8312;SDS011;4194;43.408;24.626;2023-06-22T12:45:43;7.47;;;6.78;;
8312;SDS011;4194;43.408;24.626;2023-06-22T12:48:09;8.93;;;7.13;;
8312;SDS011;4194;43.408;24.626;2023-06-22T12:50:34;8.13;;;6.57;;
8312;SDS011;4194;43.408;24.626;2023-06-22T12:53:00;10.38;;;6.95;;
8312;SDS011;4194;43.408;24.626;2023-06-22T12:55:28;6.97;;;6.38;;
8312;SDS011;4194;43.408;24.626;2023-06-22T12:57:53;7.50;;;6.55;;
8312;SDS011;4194;43.408;24.626;2023-06-22T13:00:19;10.07;;;6.75;;
8312;SDS011;4194;43.408;24.626;2023-06-22T13:02:45;8.10;;;7.00;;
8312;SDS011;4194;43.408;24.626;2023-06-22T13:05:11;7.43;;;6.70;;
8312;SDS011;4194;43.408;24.626;2023-06-22T13:07:36;7.22;;;6.60;;
8312;SDS011;4194;43.408;24.626;2023-06-22T13:10:02;6.97;;;6.38;;
8312;SDS011;4194;43.408;24.626;2023-06-22T13:12:28;6.90;;;6.32;;
8312;SDS011;4194;43.408;24.626;2023-06-22T13:14:54;6.80;;;6.03;;
8312;SDS011;4194;43.408;24.626;2023-06-22T13:17:20;10.43;;;7.20;;
8312;SDS011;4194;43.408;24.626;2023-06-22T13:19:46;7.22;;;6.40;;
8312;SDS011;4194;43.408;24.626;2023-06-22T13:22:25;8.23;;;7.00;;
8312;SDS011;4194;43.408;24.626;2023-06-22T13:24:55;6.97;;;6.38;;
8312;SDS011;4194;43.408;24.626;2023-06-22T13:27:21;7.15;;;6.45;;
8312;SDS011;4194;43.408;24.626;2023-06-22T13:29:47;7.68;;;6.97;;
8312;SDS011;4194;43.408;24.626;2023-06-22T13:32:12;9.05;;;6.43;;
8312;SDS011;4194;43.408;24.626;2023-06-22T13:34:38;8.90;;;6.78;;
8312;SDS011;4194;43.408;24.626;2023-06-22T13:37:04;8.90;;;6.03;;
8312;SDS011;4194;43.408;24.626;2023-06-22T13:39:30;10.90;;;7.38;;
8312;SDS011;4194;43.408;24.626;2023-06-22T13:41:56;8.40;;;6.20;;
8312;SDS011;4194;43.408;24.626;2023-06-22T13:44:23;9.77;;;7.25;;
8312;SDS011;4194;43.408;24.626;2023-06-22T13:46:52;7.00;;;6.40;;
8312;SDS011;4194;43.408;24.626;2023-06-22T13:49:18;6.47;;;5.88;;
8312;SDS011;4194;43.408;24.626;2023-06-22T13:51:43;6.78;;;6.18;;
8312;SDS011;4194;43.408;24.626;2023-06-22T13:54:09;12.32;;;5.93;;
8312;SDS011;4194;43.408;24.626;2023-06-22T13:56:35;6.25;;;5.70;;
8312;SDS011;4194;43.408;24.626;2023-06-22T13:59:00;6.50;;;5.30;;
8312;SDS011;4194;43.408;24.626;2023-06-22T14:01:26;5.88;;;5.00;;
8312;SDS011;4194;43.408;24.626;2023-06-22T14:03:52;6.68;;;5.22;;
8312;SDS011;4194;43.408;24.626;2023-06-22T14:06:17;6.55;;;5.95;;
8312;SDS011;4194;43.408;24.626;2023-06-22T14:08:43;6.40;;;5.78;;
8312;SDS011;4194;43.408;24.626;2023-06-22T14:11:09;8.30;;;6.05;;
8312;SDS011;4194;43.408;24.626;2023-06-22T14:13:35;5.90;;;5.40;;
8312;SDS011;4194;43.408;24.626;2023-06-22T14:16:01;6.35;;;5.75;;
8312;SDS011;4194;43.408;24.626;2023-06-22T14:18:28;6.70;;;6.10;;
8312;SDS011;4194;43.408;24.626;2023-06-22T14:20:54;6.88;;;6.15;;
8312;SDS011;4194;43.408;24.626;2023-06-22T14:23:20;6.68;;;5.80;;
8312;SDS011;4194;43.408;24.626;2023-06-22T14:25:46;6.32;;;5.72;;
8312;SDS011;4194;43.408;24.626;2023-06-22T14:28:11;5.22;;;4.80;;
8312;SDS011;4194;43.408;24.626;2023-06-22T14:30:37;6.50;;;5.88;;
8312;SDS011;4194;43.408;24.626;2023-06-22T14:33:03;6.68;;;6.13;;
8312;SDS011;4194;43.408;24.626;2023-06-22T14:35:28;6.38;;;5.78;;
8312;SDS011;4194;43.408;24.626;2023-06-22T14:37:54;6.32;;;5.72;;
8312;SDS011;4194;43.408;24.626;2023-06-22T14:40:19;5.30;;;4.90;;
8312;SDS011;4194;43.408;24.626;2023-06-22T14:42:45;6.10;;;5.50;;
8312;SDS011;4194;43.408;24.626;2023-06-22T14:45:12;5.85;;;4.75;;
8312;SDS011;4194;43.408;24.626;2023-06-22T14:47:38;6.78;;;5.22;;
8312;SDS011;4194;43.408;24.626;2023-06-22T14:50:04;6.05;;;5.55;;
8312;SDS011;4194;43.408;24.626;2023-06-22T14:52:30;6.15;;;5.10;;
8312;SDS011;4194;43.408;24.626;2023-06-22T14:54:56;5.22;;;4.82;;
8312;SDS011;4194;43.408;24.626;2023-06-22T14:57:22;5.30;;;4.85;;
8312;SDS011;4194;43.408;24.626;2023-06-22T14:59:48;5.88;;;5.25;;